sensor_id;sensor_type;location;lat;lon;timestamp;temperature;humidity
41928;DHT22;27616;51.420;6.788;2023-04-23T00:02:09;10.20;99.90
41928;DHT22;27616;51.420;6.788;2023-04-23T00:04:37;10.20;99.90
41928;DHT22;27616;51.420;6.788;2023-04-23T00:07:03;10.20;99.90
41928;DHT22;27616;51.420;6.788;2023-04-23T00:09:30;10.20;99.90
41928;DHT22;27616;51.420;6.788;2023-04-23T00:11:59;10.20;99.90
41928;DHT22;27616;51.420;6.788;2023-04-23T00:14:26;10.20;99.90
41928;DHT22;27616;51.420;6.788;2023-04-23T00:16:52;10.20;99.90
41928;DHT22;27616;51.420;6.788;2023-04-23T00:19:18;10.10;99.90
41928;DHT22;27616;51.420;6.788;2023-04-23T00:21:45;10.10;99.90
41928;DHT22;27616;51.420;6.788;2023-04-23T00:24:11;10.00;99.90
41928;DHT22;27616;51.420;6.788;2023-04-23T00:26:36;10.10;99.90
41928;DHT22;27616;51.420;6.788;2023-04-23T00:29:02;10.00;99.90
41928;DHT22;27616;51.420;6.788;2023-04-23T00:31:28;10.10;99.90
41928;DHT22;27616;51.420;6.788;2023-04-23T00:33:54;10.10;99.90
41928;DHT22;27616;51.420;6.788;2023-04-23T00:36:20;10.10;99.90
41928;DHT22;27616;51.420;6.788;2023-04-23T00:38:46;10.10;99.90
41928;DHT22;27616;51.420;6.788;2023-04-23T00:41:12;10.10;99.90
41928;DHT22;27616;51.420;6.788;2023-04-23T00:43:39;10.10;99.90
41928;DHT22;27616;51.420;6.788;2023-04-23T00:46:05;10.00;99.90
41928;DHT22;27616;51.420;6.788;2023-04-23T00:48:33;10.00;99.90
41928;DHT22;27616;51.420;6.788;2023-04-23T00:51:01;10.00;99.90
41928;DHT22;27616;51.420;6.788;2023-04-23T00:53:27;10.00;99.90
41928;DHT22;27616;51.420;6.788;2023-04-23T00:55:53;10.00;99.90
41928;DHT22;27616;51.420;6.788;2023-04-23T00:58:20;10.00;99.90
41928;DHT22;27616;51.420;6.788;2023-04-23T01:00:46;10.10;99.90
41928;DHT22;27616;51.420;6.788;2023-04-23T01:03:14;10.00;99.90
41928;DHT22;27616;51.420;6.788;2023-04-23T01:05:42;10.10;99.90
41928;DHT22;27616;51.420;6.788;2023-04-23T01:08:14;10.00;99.90
41928;DHT22;27616;51.420;6.788;2023-04-23T01:10:44;10.00;99.90
41928;DHT22;27616;51.420;6.788;2023-04-23T01:13:13;10.00;99.90
41928;DHT22;27616;51.420;6.788;2023-04-23T01:15:39;10.00;99.90
41928;DHT22;27616;51.420;6.788;2023-04-23T01:18:05;10.00;99.90
41928;DHT22;27616;51.420;6.788;2023-04-23T01:20:34;10.00;99.90
41928;DHT22;27616;51.420;6.788;2023-04-23T01:23:04;10.00;99.90
41928;DHT22;27616;51.420;6.788;2023-04-23T01:25:29;9.90;99.90
41928;DHT22;27616;51.420;6.788;2023-04-23T01:27:56;9.90;99.90
41928;DHT22;27616;51.420;6.788;2023-04-23T01:30:25;9.90;99.90
41928;DHT22;27616;51.420;6.788;2023-04-23T01:32:53;9.80;99.90
41928;DHT22;27616;51.420;6.788;2023-04-23T01:35:20;9.80;99.90
41928;DHT22;27616;51.420;6.788;2023-04-23T01:37:46;9.70;99.90
41928;DHT22;27616;51.420;6.788;2023-04-23T01:40:12;9.70;99.90
41928;DHT22;27616;51.420;6.788;2023-04-23T01:42:39;9.60;99.90
41928;DHT22;27616;51.420;6.788;2023-04-23T01:45:06;9.70;99.90
41928;DHT22;27616;51.420;6.788;2023-04-23T01:47:35;9.60;99.90
41928;DHT22;27616;51.420;6.788;2023-04-23T01:50:01;9.60;99.90
41928;DHT22;27616;51.420;6.788;2023-04-23T01:52:29;9.50;99.90
41928;DHT22;27616;51.420;6.788;2023-04-23T01:54:55;9.50;99.90
41928;DHT22;27616;51.420;6.788;2023-04-23T01:57:21;9.50;99.90
41928;DHT22;27616;51.420;6.788;2023-04-23T01:59:53;9.50;99.90
41928;DHT22;27616;51.420;6.788;2023-04-23T02:02:23;9.40;99.90
41928;DHT22;27616;51.420;6.788;2023-04-23T02:04:49;9.50;99.90
41928;DHT22;27616;51.420;6.788;2023-04-23T02:07:17;9.40;99.90
41928;DHT22;27616;51.420;6.788;2023-04-23T02:09:43;9.40;99.90
41928;DHT22;27616;51.420;6.788;2023-04-23T02:12:09;9.40;99.90
41928;DHT22;27616;51.420;6.788;2023-04-23T02:14:34;9.40;99.90
41928;DHT22;27616;51.420;6.788;2023-04-23T02:17:00;9.30;99.90
41928;DHT22;27616;51.420;6.788;2023-04-23T02:19:27;9.30;99.90
41928;DHT22;27616;51.420;6.788;2023-04-23T02:21:55;9.30;99.90
41928;DHT22;27616;51.420;6.788;2023-04-23T02:24:21;9.30;99.90
41928;DHT22;27616;51.420;6.788;2023-04-23T02:26:46;9.20;99.90
41928;DHT22;27616;51.420;6.788;2023-04-23T02:29:13;9.20;99.90
41928;DHT22;27616;51.420;6.788;2023-04-23T02:31:39;9.20;99.90
41928;DHT22;27616;51.420;6.788;2023-04-23T02:34:05;9.20;99.90
41928;DHT22;27616;51.420;6.788;2023-04-23T02:36:30;9.10;99.90
41928;DHT22;27616;51.420;6.788;2023-04-23T02:38:56;9.10;99.90
41928;DHT22;27616;51.420;6.788;2023-04-23T02:41:22;9.10;99.90
41928;DHT22;27616;51.420;6.788;2023-04-23T02:43:48;9.10;99.90
41928;DHT22;27616;51.420;6.788;2023-04-23T02:46:14;9.10;99.90
41928;DHT22;27616;51.420;6.788;2023-04-23T02:48:40;9.10;99.90
41928;DHT22;27616;51.420;6.788;2023-04-23T02:51:07;9.00;99.90
41928;DHT22;27616;51.420;6.788;2023-04-23T02:53:33;9.00;99.90
41928;DHT22;27616;51.420;6.788;2023-04-23T02:55:59;9.10;99.90
41928;DHT22;27616;51.420;6.788;2023-04-23T02:58:26;9.10;99.90
41928;DHT22;27616;51.420;6.788;2023-04-23T03:00:54;9.10;99.90
41928;DHT22;27616;51.420;6.788;2023-04-23T03:03:20;9.10;99.90
41928;DHT22;27616;51.420;6.788;2023-04-23T03:05:46;9.10;99.90
41928;DHT22;27616;51.420;6.788;2023-04-23T03:08:12;9.10;99.90
41928;DHT22;27616;51.420;6.788;2023-04-23T03:10:37;9.10;99.90
41928;DHT22;27616;51.420;6.788;2023-04-23T03:13:03;9.10;99.90
41928;DHT22;27616;51.420;6.788;2023-04-23T03:15:29;9.10;99.90
41928;DHT22;27616;51.420;6.788;2023-04-23T03:17:55;9.10;99.90
41928;DHT22;27616;51.420;6.788;2023-04-23T03:20:21;9.20;99.90
41928;DHT22;27616;51.420;6.788;2023-04-23T03:22:47;9.20;99.90
41928;DHT22;27616;51.420;6.788;2023-04-23T03:25:13;9.20;99.90
41928;DHT22;27616;51.420;6.788;2023-04-23T03:27:39;9.20;99.90
41928;DHT22;27616;51.420;6.788;2023-04-23T03:30:06;9.20;99.90
41928;DHT22;27616;51.420;6.788;2023-04-23T03:32:34;9.20;99.90
41928;DHT22;27616;51.420;6.788;2023-04-23T03:35:00;9.20;99.90
41928;DHT22;27616;51.420;6.788;2023-04-23T03:37:26;9.20;99.90
41928;DHT22;27616;51.420;6.788;2023-04-23T03:39:53;9.20;99.90
41928;DHT22;27616;51.420;6.788;2023-04-23T03:42:19;9.10;99.90
41928;DHT22;27616;51.420;6.788;2023-04-23T03:44:44;9.10;99.90
41928;DHT22;27616;51.420;6.788;2023-04-23T03:47:10;9.10;99.90
41928;DHT22;27616;51.420;6.788;2023-04-23T03:49:36;9.10;99.90
41928;DHT22;27616;51.420;6.788;2023-04-23T03:52:03;9.10;99.90
41928;DHT22;27616;51.420;6.788;2023-04-23T03:54:30;9.10;99.90
41928;DHT22;27616;51.420;6.788;2023-04-23T03:57:03;9.10;99.90
41928;DHT22;27616;51.420;6.788;2023-04-23T03:59:33;9.10;99.90
41928;DHT22;27616;51.420;6.788;2023-04-23T04:02:00;9.10;99.90
41928;DHT22;27616;51.420;6.788;2023-04-23T04:04:29;9.10;99.90
41928;DHT22;27616;51.420;6.788;2023-04-23T04:06:55;9.10;99.90
41928;DHT22;27616;51.420;6.788;2023-04-23T04:09:26;9.10;99.90
41928;DHT22;27616;51.420;6.788;2023-04-23T04:11:52;9.10;99.90
41928;DHT22;27616;51.420;6.788;2023-04-23T04:14:21;9.00;99.90
41928;DHT22;27616;51.420;6.788;2023-04-23T04:16:47;9.00;99.90
41928;DHT22;27616;51.420;6.788;2023-04-23T04:19:13;9.10;99.90
41928;DHT22;27616;51.420;6.788;2023-04-23T04:21:39;9.10;99.90
41928;DHT22;27616;51.420;6.788;2023-04-23T04:24:05;9.10;99.90
41928;DHT22;27616;51.420;6.788;2023-04-23T04:26:31;9.10;99.90
41928;DHT22;27616;51.420;6.788;2023-04-23T04:28:58;9.10;99.90
41928;DHT22;27616;51.420;6.788;2023-04-23T04:31:25;9.10;99.90
41928;DHT22;27616;51.420;6.788;2023-04-23T04:33:56;9.00;99.90
41928;DHT22;27616;51.420;6.788;2023-04-23T04:36:22;9.00;99.90
41928;DHT22;27616;51.420;6.788;2023-04-23T04:38:50;9.00;99.90
41928;DHT22;27616;51.420;6.788;2023-04-23T04:41:17;9.10;99.90
41928;DHT22;27616;51.420;6.788;2023-04-23T04:43:44;9.20;99.90
41928;DHT22;27616;51.420;6.788;2023-04-23T04:46:11;9.20;99.90
41928;DHT22;27616;51.420;6.788;2023-04-23T04:48:37;9.30;99.90
41928;DHT22;27616;51.420;6.788;2023-04-23T04:51:03;9.30;99.90
41928;DHT22;27616;51.420;6.788;2023-04-23T04:53:29;9.30;99.90
41928;DHT22;27616;51.420;6.788;2023-04-23T04:55:55;9.30;99.90
41928;DHT22;27616;51.420;6.788;2023-04-23T04:58:20;9.40;99.90
41928;DHT22;27616;51.420;6.788;2023-04-23T05:00:46;9.40;99.90
41928;DHT22;27616;51.420;6.788;2023-04-23T05:03:17;9.50;99.90
41928;DHT22;27616;51.420;6.788;2023-04-23T05:05:43;9.60;99.90
41928;DHT22;27616;51.420;6.788;2023-04-23T05:08:10;9.60;99.90
41928;DHT22;27616;51.420;6.788;2023-04-23T05:10:36;9.70;99.90
41928;DHT22;27616;51.420;6.788;2023-04-23T05:13:01;9.80;99.90
41928;DHT22;27616;51.420;6.788;2023-04-23T05:15:27;10.00;99.90
41928;DHT22;27616;51.420;6.788;2023-04-23T05:17:53;10.20;99.90
41928;DHT22;27616;51.420;6.788;2023-04-23T05:20:19;10.30;99.90
41928;DHT22;27616;51.420;6.788;2023-04-23T05:22:45;10.40;99.90
41928;DHT22;27616;51.420;6.788;2023-04-23T05:25:11;10.50;99.90
41928;DHT22;27616;51.420;6.788;2023-04-23T05:27:38;10.60;99.90
41928;DHT22;27616;51.420;6.788;2023-04-23T05:30:06;10.70;99.90
41928;DHT22;27616;51.420;6.788;2023-04-23T05:32:33;10.60;99.90
41928;DHT22;27616;51.420;6.788;2023-04-23T05:35:00;10.70;99.90
41928;DHT22;27616;51.420;6.788;2023-04-23T05:37:27;10.70;99.90
41928;DHT22;27616;51.420;6.788;2023-04-23T05:39:53;10.70;99.90
41928;DHT22;27616;51.420;6.788;2023-04-23T05:42:20;10.80;99.90
41928;DHT22;27616;51.420;6.788;2023-04-23T05:44:46;10.90;99.90
41928;DHT22;27616;51.420;6.788;2023-04-23T05:47:12;10.90;99.90
41928;DHT22;27616;51.420;6.788;2023-04-23T05:49:38;10.90;99.90
41928;DHT22;27616;51.420;6.788;2023-04-23T05:52:05;10.90;99.90
41928;DHT22;27616;51.420;6.788;2023-04-23T05:54:31;11.00;99.90
41928;DHT22;27616;51.420;6.788;2023-04-23T05:56:57;11.00;99.90
41928;DHT22;27616;51.420;6.788;2023-04-23T05:59:23;11.00;99.90
41928;DHT22;27616;51.420;6.788;2023-04-23T06:01:49;10.90;99.90
41928;DHT22;27616;51.420;6.788;2023-04-23T06:04:15;11.00;99.90
41928;DHT22;27616;51.420;6.788;2023-04-23T06:06:44;10.90;99.90
41928;DHT22;27616;51.420;6.788;2023-04-23T06:09:10;10.90;99.90
41928;DHT22;27616;51.420;6.788;2023-04-23T06:11:35;10.90;99.90
41928;DHT22;27616;51.420;6.788;2023-04-23T06:14:02;10.90;99.90
41928;DHT22;27616;51.420;6.788;2023-04-23T06:16:28;11.00;99.90
41928;DHT22;27616;51.420;6.788;2023-04-23T06:18:54;11.00;99.90
41928;DHT22;27616;51.420;6.788;2023-04-23T06:21:23;11.10;99.90
41928;DHT22;27616;51.420;6.788;2023-04-23T06:23:49;11.10;99.90
41928;DHT22;27616;51.420;6.788;2023-04-23T06:26:15;11.20;99.90
41928;DHT22;27616;51.420;6.788;2023-04-23T06:28:44;11.30;99.90
41928;DHT22;27616;51.420;6.788;2023-04-23T06:31:29;11.40;99.90
41928;DHT22;27616;51.420;6.788;2023-04-23T06:33:54;11.40;99.90
41928;DHT22;27616;51.420;6.788;2023-04-23T06:36:20;11.50;99.90
41928;DHT22;27616;51.420;6.788;2023-04-23T06:38:46;11.50;99.90
41928;DHT22;27616;51.420;6.788;2023-04-23T06:41:11;11.60;99.90
41928;DHT22;27616;51.420;6.788;2023-04-23T06:43:37;11.60;99.90
41928;DHT22;27616;51.420;6.788;2023-04-23T06:46:22;11.70;99.90
41928;DHT22;27616;51.420;6.788;2023-04-23T06:48:48;11.80;99.90
41928;DHT22;27616;51.420;6.788;2023-04-23T06:51:14;11.80;99.90
41928;DHT22;27616;51.420;6.788;2023-04-23T06:53:40;11.90;99.90
41928;DHT22;27616;51.420;6.788;2023-04-23T06:56:06;11.90;99.90
41928;DHT22;27616;51.420;6.788;2023-04-23T06:58:32;12.00;99.90
41928;DHT22;27616;51.420;6.788;2023-04-23T07:01:00;12.20;99.90
41928;DHT22;27616;51.420;6.788;2023-04-23T07:03:29;12.40;99.90
41928;DHT22;27616;51.420;6.788;2023-04-23T07:05:56;12.60;99.90
41928;DHT22;27616;51.420;6.788;2023-04-23T07:08:22;12.90;99.90
41928;DHT22;27616;51.420;6.788;2023-04-23T07:10:48;13.10;99.90
41928;DHT22;27616;51.420;6.788;2023-04-23T07:13:14;13.30;99.90
41928;DHT22;27616;51.420;6.788;2023-04-23T07:15:41;13.60;99.90
41928;DHT22;27616;51.420;6.788;2023-04-23T07:18:07;13.60;99.90
41928;DHT22;27616;51.420;6.788;2023-04-23T07:20:33;13.70;99.90
41928;DHT22;27616;51.420;6.788;2023-04-23T07:22:59;13.90;99.90
41928;DHT22;27616;51.420;6.788;2023-04-23T07:25:25;14.10;99.90
41928;DHT22;27616;51.420;6.788;2023-04-23T07:27:52;14.30;99.90
41928;DHT22;27616;51.420;6.788;2023-04-23T07:30:19;14.60;99.90
41928;DHT22;27616;51.420;6.788;2023-04-23T07:32:45;14.80;99.90
41928;DHT22;27616;51.420;6.788;2023-04-23T07:35:11;15.00;99.90
41928;DHT22;27616;51.420;6.788;2023-04-23T07:37:37;15.20;99.90
41928;DHT22;27616;51.420;6.788;2023-04-23T07:40:03;15.20;99.90
41928;DHT22;27616;51.420;6.788;2023-04-23T07:42:30;15.40;99.90
41928;DHT22;27616;51.420;6.788;2023-04-23T07:44:56;15.70;99.90
41928;DHT22;27616;51.420;6.788;2023-04-23T07:47:22;16.00;99.90
41928;DHT22;27616;51.420;6.788;2023-04-23T07:49:48;16.30;99.90
41928;DHT22;27616;51.420;6.788;2023-04-23T07:52:14;16.60;99.90
41928;DHT22;27616;51.420;6.788;2023-04-23T07:54:40;16.70;99.90
41928;DHT22;27616;51.420;6.788;2023-04-23T07:57:06;17.30;99.90
41928;DHT22;27616;51.420;6.788;2023-04-23T07:59:32;17.40;99.90
41928;DHT22;27616;51.420;6.788;2023-04-23T08:01:57;17.70;99.90
41928;DHT22;27616;51.420;6.788;2023-04-23T08:04:23;17.70;99.90
41928;DHT22;27616;51.420;6.788;2023-04-23T08:06:49;17.40;99.90
41928;DHT22;27616;51.420;6.788;2023-04-23T08:09:15;17.10;99.90
41928;DHT22;27616;51.420;6.788;2023-04-23T08:11:41;16.90;99.90
41928;DHT22;27616;51.420;6.788;2023-04-23T08:14:06;16.90;99.90
41928;DHT22;27616;51.420;6.788;2023-04-23T08:16:32;16.80;99.90
41928;DHT22;27616;51.420;6.788;2023-04-23T08:18:58;16.60;99.90
41928;DHT22;27616;51.420;6.788;2023-04-23T08:21:24;16.70;99.90
41928;DHT22;27616;51.420;6.788;2023-04-23T08:23:51;16.80;99.90
41928;DHT22;27616;51.420;6.788;2023-04-23T08:26:17;16.70;99.90
41928;DHT22;27616;51.420;6.788;2023-04-23T08:28:43;16.80;99.90
41928;DHT22;27616;51.420;6.788;2023-04-23T08:31:09;16.80;99.90
41928;DHT22;27616;51.420;6.788;2023-04-23T08:33:35;16.80;99.90
41928;DHT22;27616;51.420;6.788;2023-04-23T08:36:01;16.80;99.90
41928;DHT22;27616;51.420;6.788;2023-04-23T08:38:26;16.70;99.90
41928;DHT22;27616;51.420;6.788;2023-04-23T08:40:56;16.60;99.90
41928;DHT22;27616;51.420;6.788;2023-04-23T08:43:30;16.50;99.90
41928;DHT22;27616;51.420;6.788;2023-04-23T08:45:58;16.60;99.90
41928;DHT22;27616;51.420;6.788;2023-04-23T08:48:27;16.60;99.90
41928;DHT22;27616;51.420;6.788;2023-04-23T08:50:55;16.70;99.90
41928;DHT22;27616;51.420;6.788;2023-04-23T08:53:25;16.80;99.90
41928;DHT22;27616;51.420;6.788;2023-04-23T08:55:54;16.90;99.90
41928;DHT22;27616;51.420;6.788;2023-04-23T08:58:20;16.90;99.90
41928;DHT22;27616;51.420;6.788;2023-04-23T09:00:47;17.00;99.90
41928;DHT22;27616;51.420;6.788;2023-04-23T09:03:15;17.20;99.90
41928;DHT22;27616;51.420;6.788;2023-04-23T09:05:42;17.20;99.90
41928;DHT22;27616;51.420;6.788;2023-04-23T09:08:09;17.00;99.90
41928;DHT22;27616;51.420;6.788;2023-04-23T09:10:36;17.00;99.90
41928;DHT22;27616;51.420;6.788;2023-04-23T09:13:04;17.00;99.90
41928;DHT22;27616;51.420;6.788;2023-04-23T09:15:30;17.20;99.90
41928;DHT22;27616;51.420;6.788;2023-04-23T09:17:57;17.00;99.90
41928;DHT22;27616;51.420;6.788;2023-04-23T09:20:24;17.00;99.90
41928;DHT22;27616;51.420;6.788;2023-04-23T09:22:50;17.00;99.90
41928;DHT22;27616;51.420;6.788;2023-04-23T09:25:21;17.00;99.90
41928;DHT22;27616;51.420;6.788;2023-04-23T09:27:50;17.10;99.90
41928;DHT22;27616;51.420;6.788;2023-04-23T09:30:16;17.00;99.90
41928;DHT22;27616;51.420;6.788;2023-04-23T09:32:43;17.10;99.90
41928;DHT22;27616;51.420;6.788;2023-04-23T09:35:14;17.20;99.90
41928;DHT22;27616;51.420;6.788;2023-04-23T09:37:42;17.20;99.90
41928;DHT22;27616;51.420;6.788;2023-04-23T09:40:08;17.30;99.90
41928;DHT22;27616;51.420;6.788;2023-04-23T09:42:37;17.20;99.90
41928;DHT22;27616;51.420;6.788;2023-04-23T09:45:10;17.40;99.90
41928;DHT22;27616;51.420;6.788;2023-04-23T09:47:46;17.50;99.90
41928;DHT22;27616;51.420;6.788;2023-04-23T09:50:12;17.80;99.90
41928;DHT22;27616;51.420;6.788;2023-04-23T09:52:39;17.90;99.90
41928;DHT22;27616;51.420;6.788;2023-04-23T09:55:06;18.30;99.90
41928;DHT22;27616;51.420;6.788;2023-04-23T09:57:42;18.80;99.90
41928;DHT22;27616;51.420;6.788;2023-04-23T10:00:13;18.80;99.90
41928;DHT22;27616;51.420;6.788;2023-04-23T10:02:46;19.40;99.90
41928;DHT22;27616;51.420;6.788;2023-04-23T10:05:17;19.50;99.10
41928;DHT22;27616;51.420;6.788;2023-04-23T10:07:44;19.20;98.80
41928;DHT22;27616;51.420;6.788;2023-04-23T10:10:17;19.10;99.90
41928;DHT22;27616;51.420;6.788;2023-04-23T10:12:43;19.00;99.80
41928;DHT22;27616;51.420;6.788;2023-04-23T10:15:10;18.90;99.90
41928;DHT22;27616;51.420;6.788;2023-04-23T10:17:37;18.70;99.90
41928;DHT22;27616;51.420;6.788;2023-04-23T10:20:04;18.70;99.90
41928;DHT22;27616;51.420;6.788;2023-04-23T10:22:32;18.70;99.80
41928;DHT22;27616;51.420;6.788;2023-04-23T10:25:00;18.70;99.90
41928;DHT22;27616;51.420;6.788;2023-04-23T10:27:30;19.00;99.90
41928;DHT22;27616;51.420;6.788;2023-04-23T10:30:00;19.10;99.90
41928;DHT22;27616;51.420;6.788;2023-04-23T10:32:26;19.10;98.90
41928;DHT22;27616;51.420;6.788;2023-04-23T10:34:52;19.20;99.50
41928;DHT22;27616;51.420;6.788;2023-04-23T10:37:18;19.70;98.80
41928;DHT22;27616;51.420;6.788;2023-04-23T10:39:48;20.50;97.60
41928;DHT22;27616;51.420;6.788;2023-04-23T10:42:15;20.80;97.30
41928;DHT22;27616;51.420;6.788;2023-04-23T10:44:42;20.80;95.90
41928;DHT22;27616;51.420;6.788;2023-04-23T10:47:15;21.00;95.90
41928;DHT22;27616;51.420;6.788;2023-04-23T10:49:42;20.80;95.20
41928;DHT22;27616;51.420;6.788;2023-04-23T10:52:09;20.70;95.10
41928;DHT22;27616;51.420;6.788;2023-04-23T10:54:35;20.30;96.30
41928;DHT22;27616;51.420;6.788;2023-04-23T10:57:03;20.10;95.80
41928;DHT22;27616;51.420;6.788;2023-04-23T10:59:30;20.30;96.10
41928;DHT22;27616;51.420;6.788;2023-04-23T11:01:57;20.40;95.20
41928;DHT22;27616;51.420;6.788;2023-04-23T11:04:28;20.50;94.60
41928;DHT22;27616;51.420;6.788;2023-04-23T11:07:09;20.20;95.80
41928;DHT22;27616;51.420;6.788;2023-04-23T11:09:41;20.10;96.50
41928;DHT22;27616;51.420;6.788;2023-04-23T11:14:50;20.30;95.80
41928;DHT22;27616;51.420;6.788;2023-04-23T11:20:10;20.00;95.50
41928;DHT22;27616;51.420;6.788;2023-04-23T11:22:44;20.00;96.30
41928;DHT22;27616;51.420;6.788;2023-04-23T11:25:17;20.00;96.30
41928;DHT22;27616;51.420;6.788;2023-04-23T11:27:46;19.60;96.30
41928;DHT22;27616;51.420;6.788;2023-04-23T11:30:17;19.50;95.90
41928;DHT22;27616;51.420;6.788;2023-04-23T11:32:51;19.40;96.40
41928;DHT22;27616;51.420;6.788;2023-04-23T11:35:19;19.20;95.80
41928;DHT22;27616;51.420;6.788;2023-04-23T11:37:45;19.00;96.50
41928;DHT22;27616;51.420;6.788;2023-04-23T11:40:15;18.80;97.00
41928;DHT22;27616;51.420;6.788;2023-04-23T11:42:53;18.90;97.20
41928;DHT22;27616;51.420;6.788;2023-04-23T11:45:22;18.90;95.40
41928;DHT22;27616;51.420;6.788;2023-04-23T11:47:51;19.10;95.50
41928;DHT22;27616;51.420;6.788;2023-04-23T11:50:30;19.10;94.90
41928;DHT22;27616;51.420;6.788;2023-04-23T11:53:03;19.10;94.40
41928;DHT22;27616;51.420;6.788;2023-04-23T11:55:28;19.10;95.00
41928;DHT22;27616;51.420;6.788;2023-04-23T11:57:56;19.20;94.90
41928;DHT22;27616;51.420;6.788;2023-04-23T12:00:24;19.50;95.20
41928;DHT22;27616;51.420;6.788;2023-04-23T12:02:55;19.60;94.80
41928;DHT22;27616;51.420;6.788;2023-04-23T12:05:30;19.70;93.80
41928;DHT22;27616;51.420;6.788;2023-04-23T12:08:16;19.80;93.20
41928;DHT22;27616;51.420;6.788;2023-04-23T12:13:15;19.70;91.60
41928;DHT22;27616;51.420;6.788;2023-04-23T12:16:01;19.70;91.10
41928;DHT22;27616;51.420;6.788;2023-04-23T12:18:34;19.30;91.60
41928;DHT22;27616;51.420;6.788;2023-04-23T12:21:10;19.30;93.30
41928;DHT22;27616;51.420;6.788;2023-04-23T12:23:37;19.10;92.00
41928;DHT22;27616;51.420;6.788;2023-04-23T12:26:03;19.00;92.30
41928;DHT22;27616;51.420;6.788;2023-04-23T12:28:29;19.00;91.40
41928;DHT22;27616;51.420;6.788;2023-04-23T12:30:59;19.00;92.10
41928;DHT22;27616;51.420;6.788;2023-04-23T12:33:28;19.10;92.00
41928;DHT22;27616;51.420;6.788;2023-04-23T12:35:55;19.20;92.60
41928;DHT22;27616;51.420;6.788;2023-04-23T12:38:25;19.50;91.90
41928;DHT22;27616;51.420;6.788;2023-04-23T12:40:53;19.80;92.60
41928;DHT22;27616;51.420;6.788;2023-04-23T12:43:19;20.10;91.10
41928;DHT22;27616;51.420;6.788;2023-04-23T12:45:45;20.10;91.20
41928;DHT22;27616;51.420;6.788;2023-04-23T12:48:11;20.30;90.80
41928;DHT22;27616;51.420;6.788;2023-04-23T12:50:37;20.30;90.80
41928;DHT22;27616;51.420;6.788;2023-04-23T12:53:03;20.30;90.50
41928;DHT22;27616;51.420;6.788;2023-04-23T12:55:29;20.30;90.70
41928;DHT22;27616;51.420;6.788;2023-04-23T12:57:55;20.30;90.30
41928;DHT22;27616;51.420;6.788;2023-04-23T13:00:21;20.40;89.00
41928;DHT22;27616;51.420;6.788;2023-04-23T13:02:47;20.50;87.40
41928;DHT22;27616;51.420;6.788;2023-04-23T13:05:13;20.40;84.80
41928;DHT22;27616;51.420;6.788;2023-04-23T13:07:38;20.50;85.30
41928;DHT22;27616;51.420;6.788;2023-04-23T13:10:05;20.50;85.20
41928;DHT22;27616;51.420;6.788;2023-04-23T13:12:31;20.30;84.00
41928;DHT22;27616;51.420;6.788;2023-04-23T13:14:57;20.20;83.60
41928;DHT22;27616;51.420;6.788;2023-04-23T13:17:22;20.00;83.60
41928;DHT22;27616;51.420;6.788;2023-04-23T13:19:54;20.10;82.40
41928;DHT22;27616;51.420;6.788;2023-04-23T13:22:21;20.10;82.20
41928;DHT22;27616;51.420;6.788;2023-04-23T13:24:47;20.10;81.70
41928;DHT22;27616;51.420;6.788;2023-04-23T13:27:13;20.00;81.80
41928;DHT22;27616;51.420;6.788;2023-04-23T13:29:39;19.90;82.30
41928;DHT22;27616;51.420;6.788;2023-04-23T13:32:05;19.60;82.60
41928;DHT22;27616;51.420;6.788;2023-04-23T13:34:31;19.50;82.70
41928;DHT22;27616;51.420;6.788;2023-04-23T13:36:58;19.40;82.00
41928;DHT22;27616;51.420;6.788;2023-04-23T13:39:25;19.30;83.50
41928;DHT22;27616;51.420;6.788;2023-04-23T13:41:50;19.30;82.00
41928;DHT22;27616;51.420;6.788;2023-04-23T13:44:16;19.40;83.10
41928;DHT22;27616;51.420;6.788;2023-04-23T13:46:42;19.40;82.40
41928;DHT22;27616;51.420;6.788;2023-04-23T13:49:08;19.50;82.80
41928;DHT22;27616;51.420;6.788;2023-04-23T13:51:33;19.50;82.10
41928;DHT22;27616;51.420;6.788;2023-04-23T13:53:59;19.70;81.50
41928;DHT22;27616;51.420;6.788;2023-04-23T13:56:25;19.50;82.80
41928;DHT22;27616;51.420;6.788;2023-04-23T13:58:51;19.60;82.30
41928;DHT22;27616;51.420;6.788;2023-04-23T14:01:18;19.60;84.20
41928;DHT22;27616;51.420;6.788;2023-04-23T14:03:44;19.50;83.80
41928;DHT22;27616;51.420;6.788;2023-04-23T14:06:10;19.30;84.20
41928;DHT22;27616;51.420;6.788;2023-04-23T14:08:36;19.30;83.90
41928;DHT22;27616;51.420;6.788;2023-04-23T14:11:02;19.20;83.30
41928;DHT22;27616;51.420;6.788;2023-04-23T14:13:30;19.10;83.50
41928;DHT22;27616;51.420;6.788;2023-04-23T14:15:56;19.00;84.10
41928;DHT22;27616;51.420;6.788;2023-04-23T14:18:22;19.00;83.30
41928;DHT22;27616;51.420;6.788;2023-04-23T14:20:47;19.10;83.60
41928;DHT22;27616;51.420;6.788;2023-04-23T14:25:56;19.00;84.20
41928;DHT22;27616;51.420;6.788;2023-04-23T14:30:56;19.00;84.00
41928;DHT22;27616;51.420;6.788;2023-04-23T14:33:22;19.00;84.10
41928;DHT22;27616;51.420;6.788;2023-04-23T14:35:48;18.90;84.60
41928;DHT22;27616;51.420;6.788;2023-04-23T14:38:15;18.80;85.50
41928;DHT22;27616;51.420;6.788;2023-04-23T14:40:41;18.80;86.20
41928;DHT22;27616;51.420;6.788;2023-04-23T14:43:06;18.90;85.10
41928;DHT22;27616;51.420;6.788;2023-04-23T14:45:32;18.60;84.10
41928;DHT22;27616;51.420;6.788;2023-04-23T14:47:58;18.60;85.10
41928;DHT22;27616;51.420;6.788;2023-04-23T14:50:24;18.60;85.30
41928;DHT22;27616;51.420;6.788;2023-04-23T14:52:50;18.40;85.00
41928;DHT22;27616;51.420;6.788;2023-04-23T14:55:16;18.40;86.30
41928;DHT22;27616;51.420;6.788;2023-04-23T14:57:42;18.40;82.60
41928;DHT22;27616;51.420;6.788;2023-04-23T15:00:08;18.30;83.00
41928;DHT22;27616;51.420;6.788;2023-04-23T15:02:41;18.30;83.60
41928;DHT22;27616;51.420;6.788;2023-04-23T15:05:08;18.30;82.00
41928;DHT22;27616;51.420;6.788;2023-04-23T15:07:35;18.20;82.70
41928;DHT22;27616;51.420;6.788;2023-04-23T15:10:01;18.20;82.30
41928;DHT22;27616;51.420;6.788;2023-04-23T15:15:02;18.30;82.70
41928;DHT22;27616;51.420;6.788;2023-04-23T15:17:29;18.20;82.40
41928;DHT22;27616;51.420;6.788;2023-04-23T15:19:54;18.00;82.80
41928;DHT22;27616;51.420;6.788;2023-04-23T15:22:21;18.00;83.50
41928;DHT22;27616;51.420;6.788;2023-04-23T15:24:47;17.90;83.10
41928;DHT22;27616;51.420;6.788;2023-04-23T15:27:12;17.80;83.40
41928;DHT22;27616;51.420;6.788;2023-04-23T15:29:39;17.70;86.60
41928;DHT22;27616;51.420;6.788;2023-04-23T15:32:06;17.60;89.90
41928;DHT22;27616;51.420;6.788;2023-04-23T15:34:31;17.30;89.30
41928;DHT22;27616;51.420;6.788;2023-04-23T15:36:57;17.10;92.10
41928;DHT22;27616;51.420;6.788;2023-04-23T15:39:23;17.00;92.60
41928;DHT22;27616;51.420;6.788;2023-04-23T15:41:50;16.80;93.40
41928;DHT22;27616;51.420;6.788;2023-04-23T15:44:16;16.60;94.60
41928;DHT22;27616;51.420;6.788;2023-04-23T15:46:43;16.40;95.70
41928;DHT22;27616;51.420;6.788;2023-04-23T15:49:09;16.20;97.50
41928;DHT22;27616;51.420;6.788;2023-04-23T15:51:36;16.10;98.40